Angel Fire, NM (87710)

2:04 AM MST on February 22, 2017 (GMT -0700)
NW face of Angel Fire Ski Mountain | | Change Station
Active Advisory: Fire Weather Warning

Elev 8907 ft 36.39 °N, 105.26 °W | Updated 1 minute ago

Overcast
Overcast
38.0 °F
Feels Like 38 °F
N
0.0
Wind Variable Wind from North
Gusts 2.0 mph

Today
High -- | Low -- °F
--% Chance of Precip.
Yesterday
High -- | Low -- °F
Precip. -- in
Pressure 30.22 in
Visibility 10.0 miles
Clouds Overcast 9000 ft
Windchill 38 °F
Dew Point 26 °F
Humidity 63%
Rainfall 0.00 in
Snow Depth Not available.
6:40 AM 5:49 PM
Waning Crescent, 19% visible
METAR KAXX 220855Z AUTO 00000KT 10SM OVC090 00/M03 A3022 RMK AO2 T00021035
Pressure 30.22 in
Visibility 10.0 miles
Clouds Overcast 9000 ft
Windchill 38 °F
Dew Point 26 °F
Humidity 63%
Rainfall 0.00 in
Snow Depth Not available.
6:40 AM 5:49 PM
Waning Crescent, 19% visible
METAR KAXX 220855Z AUTO 00000KT 10SM OVC090 00/M03 A3022 RMK AO2 T00021035

Get Your Daily Forecast Email!

Thanks for signing up!

Be on the lookout for a verification email in your inbox.

You'll start receiving the daily forecast at 8 AM.

×

10-Day Weather Forecast

Almanac

Astronomy

Feb. 22, 2017 Rise Set
Actual Time
Civil Twilight
Nautical Twilight
Astronomical Twilight
Moon
Length of Visible Light
Length of Day
Tomorrow will be .
, % of the Moon is Illuminated

Today's Extremes

State Highs State Lows

Community

WunderPhotos

Upload Photos

1,962,540 photos uploaded!

WunderBlog® & News

Nearby

Air Quality

  Air Quality AQ Index Pollutant
Not available.

Snow Depth

Station Depth Elevation

Earthquake Activity

City Distance Mag. Time & Date
Minimum magnitude displayed is 2.5.

Coastal Water Temperatures

Place Temperature

Stations

Nearby Weather Stations

Station Location Temp. Windchill Dew Point Humidity Wind Precip. Elev Updated Type
                   

Watches & Warnings

Fire Weather Warning
Issued: 2:22 PM MST Feb. 21, 2017 – National Weather Service

... Red flag warning remains in effect from noon to 6 PM MST
Wednesday...
... Red flag warning in effect from noon to 7 PM MST Thursday...

The National Weather Service in Albuquerque has issued a red flag
warning... which is in effect from noon to 7 PM MST Thursday. The
Fire Weather Watch is no longer in effect.

* Area and timing... northeast Highlands and eastern plains both
Wednesday and Thursday afternoons as well as into early Thursday
evening.

* 20 foot winds... west 20 to 30 mph with gusts to 55 mph
Wednesday. West 30 to 40 mph with gusts to 60 mph Thursday.

* Relative humidity... minimum values of 5 to 12 percent. Lowest
values across the northeast on Wednesday and east central and
southeast plains on Thursday.

* Impacts... any fires that develop will likely spread rapidly.
Outdoor burning is not recommended.

Precautionary/preparedness actions...

Please advise the appropriate officials or fire crews in the
field of this red flag warning.